createdAt,value
2023-01-12T00:01:27.403Z,83.42
2023-01-12T00:03:55.555Z,84.01
2023-01-12T00:06:24.973Z,83.08
2023-01-12T00:08:53.680Z,83.95
2023-01-12T00:11:21.581Z,83.42
2023-01-12T00:13:49.100Z,84.62
2023-01-12T00:16:37.789Z,83.38
2023-01-12T00:19:15.548Z,83.60
2023-01-12T00:21:59.163Z,83.13
2023-01-12T00:24:28.330Z,83.96
2023-01-12T00:26:56.649Z,83.90
2023-01-12T00:29:24.953Z,84.42
2023-01-12T00:31:53.713Z,83.71
2023-01-12T00:34:21.698Z,84.59
2023-01-12T00:36:50.476Z,84.56
2023-01-12T00:39:18.383Z,84.49
2023-01-12T00:42:03.833Z,85.37
2023-01-12T00:47:43.951Z,84.77
2023-01-12T00:50:11.578Z,83.80
2023-01-12T00:52:40.262Z,83.65
2023-01-12T00:55:08.687Z,82.15
2023-01-12T00:57:36.093Z,80.94
2023-01-12T01:00:03.930Z,80.17
2023-01-12T01:02:31.435Z,79.66
2023-01-12T01:04:58.836Z,78.45
2023-01-12T01:07:26.290Z,77.38
2023-01-12T01:09:56.164Z,77.62
2023-01-12T01:12:23.530Z,77.70
2023-01-12T01:14:50.900Z,78.29
2023-01-12T01:17:18.273Z,76.93
2023-01-12T01:19:46.296Z,76.69
2023-01-12T01:22:13.603Z,76.44
2023-01-12T01:24:41.274Z,76.00
2023-01-12T01:27:10.052Z,76.11
2023-01-12T01:29:37.567Z,75.74
2023-01-12T01:32:05.163Z,74.86
2023-01-12T01:34:32.531Z,75.13
2023-01-12T01:37:00.123Z,74.96
2023-01-12T01:39:27.514Z,74.78
2023-01-12T01:41:55.337Z,75.83
2023-01-12T01:44:54.316Z,75.84
2023-01-12T01:47:29.504Z,75.96
2023-01-12T01:50:00.185Z,75.69
2023-01-12T01:52:32.023Z,75.60
2023-01-12T01:55:04.086Z,74.28
2023-01-12T01:57:37.558Z,74.29
2023-01-12T02:00:08.359Z,74.03
2023-01-12T02:02:36.640Z,73.11
2023-01-12T02:05:05.036Z,72.85
2023-01-12T02:07:33.520Z,72.73
2023-01-12T02:10:00.979Z,72.90
2023-01-12T02:12:45.867Z,72.66
2023-01-12T02:15:32.289Z,72.59
2023-01-12T02:18:15.628Z,72.25
2023-01-12T02:21:17.008Z,72.65
2023-01-12T02:24:28.092Z,72.52
2023-01-12T02:27:39.362Z,72.58
2023-01-12T02:30:39.912Z,72.88
2023-01-12T02:33:21.949Z,72.42
2023-01-12T02:35:58.508Z,72.46
2023-01-12T02:38:34.683Z,72.28
2023-01-12T02:41:12.908Z,72.55
2023-01-12T02:43:41.871Z,72.93
2023-01-12T02:46:15.744Z,73.10
2023-01-12T02:48:51.385Z,73.18
2023-01-12T02:51:27.652Z,73.52
2023-01-12T02:54:01.256Z,73.65
2023-01-12T02:56:32.550Z,74.05
2023-01-12T02:59:04.814Z,74.18
2023-01-12T03:01:33.685Z,74.69
2023-01-12T03:04:04.601Z,74.75
2023-01-12T03:06:40.614Z,74.44
2023-01-12T03:09:08.742Z,74.76
2023-01-12T03:11:39.907Z,74.42
2023-01-12T03:14:09.752Z,75.05
2023-01-12T03:16:39.369Z,75.13
2023-01-12T03:19:12.229Z,75.41
2023-01-12T03:21:43.055Z,75.52
2023-01-12T03:24:13.655Z,76.24
2023-01-12T03:26:45.497Z,75.60
2023-01-12T03:29:16.938Z,74.83
2023-01-12T03:31:44.509Z,75.06
2023-01-12T03:34:13.823Z,75.77
2023-01-12T03:36:49.409Z,75.44
2023-01-12T03:39:27.498Z,75.63
2023-01-12T03:42:00.515Z,75.54
2023-01-12T03:44:32.265Z,75.14
2023-01-12T03:47:04.597Z,75.43
2023-01-12T03:49:38.885Z,75.40
2023-01-12T03:52:09.353Z,75.44
2023-01-12T03:54:39.237Z,75.43
2023-01-12T03:57:09.261Z,75.34
2023-01-12T03:59:36.887Z,74.98
2023-01-12T04:02:04.577Z,74.63
2023-01-12T04:04:32.013Z,74.67
2023-01-12T04:07:01.921Z,75.04
2023-01-12T04:09:29.475Z,74.37
2023-01-12T04:12:11.688Z,74.67
2023-01-12T04:14:39.880Z,75.02
2023-01-12T04:17:07.339Z,75.97
2023-01-12T04:19:34.762Z,75.88
2023-01-12T04:22:21.194Z,75.70
2023-01-12T04:24:49.379Z,75.58
2023-01-12T04:27:17.351Z,75.59
2023-01-12T04:29:44.938Z,75.70
2023-01-12T04:32:13.002Z,75.88
2023-01-12T04:34:40.317Z,75.08
2023-01-12T04:37:09.086Z,75.43
2023-01-12T04:39:36.484Z,75.72
2023-01-12T04:42:03.985Z,75.62
2023-01-12T04:44:32.319Z,75.24
2023-01-12T04:46:59.793Z,75.17
2023-01-12T04:49:27.143Z,75.50
2023-01-12T04:51:54.580Z,74.91
2023-01-12T04:54:23.258Z,74.40
2023-01-12T04:56:50.676Z,75.28
2023-01-12T04:59:18.111Z,74.46
2023-01-12T05:01:45.525Z,74.33
2023-01-12T05:04:14.821Z,75.00
2023-01-12T05:06:42.208Z,74.62
2023-01-12T05:09:27.719Z,75.26
2023-01-12T05:11:56.393Z,75.03
2023-01-12T05:14:23.761Z,74.47
2023-01-12T05:16:51.238Z,74.69
2023-01-12T05:19:18.618Z,75.15
2023-01-12T05:21:45.952Z,75.37
2023-01-12T05:24:13.399Z,75.71
2023-01-12T05:26:40.744Z,75.35
2023-01-12T05:29:12.315Z,75.50
2023-01-12T05:31:40.121Z,75.31
2023-01-12T05:34:07.647Z,75.20
2023-01-12T05:36:35.073Z,75.55
2023-01-12T05:39:02.573Z,75.78
2023-01-12T05:41:29.938Z,75.49
2023-01-12T05:43:56.427Z,75.48
2023-01-12T05:46:26.919Z,75.05
2023-01-12T05:48:56.621Z,75.40
2023-01-12T05:51:25.755Z,75.22
2023-01-12T05:53:53.724Z,75.55
2023-01-12T05:56:25.508Z,74.24
2023-01-12T05:58:54.544Z,75.04
2023-01-12T06:01:23.157Z,75.00
2023-01-12T06:03:53.942Z,74.89
2023-01-12T06:06:22.749Z,75.05
2023-01-12T06:08:52.607Z,75.71
2023-01-12T06:11:38.360Z,75.83
2023-01-12T06:14:06.799Z,75.95
2023-01-12T06:16:34.199Z,75.60
2023-01-12T06:19:02.868Z,76.12
2023-01-12T06:21:30.302Z,76.15
2023-01-12T06:23:57.657Z,76.40
2023-01-12T06:26:25.347Z,75.32
2023-01-12T06:28:52.741Z,75.16
2023-01-12T06:31:20.211Z,75.77
2023-01-12T06:33:48.213Z,76.00
2023-01-12T06:36:16.933Z,75.18
2023-01-12T06:38:44.344Z,75.58
2023-01-12T06:41:34.226Z,76.51
2023-01-12T06:44:01.620Z,76.24
2023-01-12T06:46:29.301Z,76.91
2023-01-12T06:48:57.554Z,77.06
2023-01-12T06:51:26.931Z,77.79
2023-01-12T06:53:54.415Z,78.54
2023-01-12T06:56:21.840Z,78.14
2023-01-12T06:58:49.233Z,78.78
2023-01-12T07:01:17.090Z,78.88
2023-01-12T07:03:44.932Z,77.71
2023-01-12T07:06:12.869Z,77.81
2023-01-12T07:08:42.789Z,78.03
2023-01-12T07:11:12.562Z,78.54
2023-01-12T07:13:40.276Z,78.34
2023-01-12T07:16:08.339Z,78.09
2023-01-12T07:18:35.649Z,78.08
2023-01-12T07:21:06.173Z,78.28
2023-01-12T07:23:33.809Z,78.31
2023-01-12T07:26:02.516Z,77.90
2023-01-12T07:31:23.194Z,77.02
2023-01-12T07:33:52.814Z,76.59
2023-01-12T07:36:20.549Z,76.66
2023-01-12T07:38:47.926Z,76.44
2023-01-12T07:41:30.656Z,76.21
2023-01-12T07:43:58.200Z,76.23
2023-01-12T07:46:26.131Z,75.80
2023-01-12T07:48:53.505Z,75.52
2023-01-12T07:51:20.954Z,76.39
2023-01-12T07:53:49.047Z,75.66
2023-01-12T07:56:19.087Z,75.38
2023-01-12T07:58:48.666Z,75.10
2023-01-12T08:01:16.485Z,75.12
2023-01-12T08:03:44.031Z,74.58
2023-01-12T08:06:11.602Z,74.98
2023-01-12T08:08:39.000Z,74.49
2023-01-12T08:11:08.815Z,74.87
2023-01-12T08:13:38.883Z,74.61
2023-01-12T08:16:14.293Z,74.64
2023-01-12T08:18:47.077Z,74.53
2023-01-12T08:21:20.098Z,74.72
2023-01-12T08:23:52.566Z,74.96
2023-01-12T08:26:23.905Z,74.95
2023-01-12T08:28:56.966Z,74.14
2023-01-12T08:31:26.223Z,73.23
2023-01-12T08:33:55.391Z,72.86
2023-01-12T08:36:23.501Z,72.35
2023-01-12T08:38:51.161Z,71.77
2023-01-12T08:41:33.660Z,71.38
2023-01-12T08:44:03.803Z,70.84
2023-01-12T08:46:32.479Z,70.83
2023-01-12T08:49:00.126Z,71.10
2023-01-12T08:51:27.570Z,70.86
2023-01-12T08:53:55.017Z,69.74
2023-01-12T08:56:23.114Z,68.36
2023-01-12T08:58:50.518Z,68.83
2023-01-12T09:01:20.055Z,67.71
2023-01-12T09:03:48.496Z,68.04
2023-01-12T09:06:17.949Z,68.42
2023-01-12T09:08:46.101Z,67.41
2023-01-12T09:11:15.478Z,67.35
2023-01-12T09:13:42.915Z,67.39
2023-01-12T09:16:13.638Z,67.74
2023-01-12T09:18:43.188Z,66.87
2023-01-12T09:21:13.028Z,66.74
2023-01-12T09:23:40.569Z,66.99
2023-01-12T09:26:10.732Z,67.57
2023-01-12T09:28:38.839Z,66.58
2023-01-12T09:31:07.275Z,66.54
2023-01-12T09:33:35.834Z,66.41
2023-01-12T09:36:06.634Z,65.65
2023-01-12T09:38:36.736Z,66.16
2023-01-12T09:41:11.061Z,65.93
2023-01-12T09:43:58.027Z,66.36
2023-01-12T09:46:46.245Z,65.56
2023-01-12T09:49:15.004Z,65.75
2023-01-12T09:51:52.246Z,65.74
2023-01-12T09:54:20.585Z,66.36
2023-01-12T09:56:52.698Z,66.14
2023-01-12T09:59:31.816Z,66.05
2023-01-12T10:01:59.689Z,66.57
2023-01-12T10:04:27.385Z,65.56
2023-01-12T10:06:56.483Z,65.88
2023-01-12T10:09:24.298Z,65.89
2023-01-12T10:12:01.583Z,65.09
2023-01-12T10:14:44.057Z,65.56
2023-01-12T10:17:38.538Z,65.53
2023-01-12T10:20:19.294Z,64.86
2023-01-12T10:22:50.840Z,64.68
2023-01-12T10:25:28.211Z,63.81
2023-01-12T10:27:57.744Z,64.44
2023-01-12T10:30:29.846Z,64.33
2023-01-12T10:32:57.531Z,64.59
2023-01-12T10:35:26.473Z,64.62
2023-01-12T10:37:57.365Z,64.25
2023-01-12T10:40:31.265Z,64.68
2023-01-12T10:43:21.830Z,64.42
2023-01-12T10:46:09.719Z,64.46
2023-01-12T10:48:39.037Z,64.11
2023-01-12T10:51:09.126Z,64.80
2023-01-12T10:53:43.400Z,63.53
2023-01-12T10:56:21.329Z,65.42
2023-01-12T10:58:52.845Z,63.74
2023-01-12T11:01:21.356Z,63.93
2023-01-12T11:03:48.990Z,64.28
2023-01-12T11:06:26.178Z,64.14
2023-01-12T11:08:55.767Z,64.83
2023-01-12T11:11:27.542Z,64.80
2023-01-12T11:13:57.809Z,64.64
2023-01-12T11:16:27.701Z,64.79
2023-01-12T11:19:13.167Z,65.41
2023-01-12T11:21:44.254Z,65.01
2023-01-12T11:24:20.365Z,64.80
2023-01-12T11:26:55.329Z,65.66
2023-01-12T11:29:35.055Z,65.43
2023-01-12T11:32:07.333Z,65.92
2023-01-12T11:34:39.282Z,65.94
2023-01-12T11:37:13.021Z,66.94
2023-01-12T11:39:53.247Z,65.87
2023-01-12T11:42:40.133Z,65.93
2023-01-12T11:45:18.001Z,65.72
2023-01-12T11:47:48.107Z,67.16
2023-01-12T11:50:19.074Z,68.36
2023-01-12T11:52:46.659Z,68.54
2023-01-12T11:55:19.912Z,69.66
2023-01-12T11:58:00.636Z,71.44
2023-01-12T12:00:50.501Z,72.37
2023-01-12T12:03:46.929Z,72.83
2023-01-12T12:06:28.130Z,74.45
2023-01-12T12:09:05.955Z,74.18
2023-01-12T12:11:42.795Z,74.96
2023-01-12T12:14:26.616Z,74.59
2023-01-12T12:17:03.375Z,75.26
2023-01-12T12:19:43.400Z,75.55
2023-01-12T12:22:23.904Z,75.48
2023-01-12T12:25:03.862Z,76.60
2023-01-12T12:27:45.486Z,75.94
2023-01-12T12:30:29.475Z,76.91
2023-01-12T12:33:07.668Z,77.13
2023-01-12T12:35:46.093Z,77.45
2023-01-12T12:38:26.702Z,77.81
2023-01-12T12:41:22.727Z,77.71
2023-01-12T12:44:26.278Z,79.05
2023-01-12T12:47:01.658Z,80.28
2023-01-12T12:49:32.713Z,81.32
2023-01-12T12:52:01.832Z,82.45
2023-01-12T12:54:30.445Z,83.07
2023-01-12T12:56:58.460Z,83.58
2023-01-12T12:59:44.335Z,85.00
2023-01-12T13:02:53.928Z,85.79
2023-01-12T13:05:46.326Z,86.02
2023-01-12T13:08:23.401Z,84.94
2023-01-12T13:10:53.712Z,85.63
2023-01-12T13:13:32.729Z,86.33
2023-01-12T13:16:45.990Z,87.29
2023-01-12T13:19:34.076Z,88.07
2023-01-12T13:22:26.740Z,87.31
2023-01-12T13:24:54.912Z,88.11
2023-01-12T13:27:48.432Z,86.82
2023-01-12T13:30:40.217Z,86.63
2023-01-12T13:33:23.995Z,86.60
2023-01-12T13:36:10.185Z,87.09
2023-01-12T13:38:53.150Z,85.69
2023-01-12T13:41:51.457Z,85.60
2023-01-12T13:44:25.302Z,86.42
2023-01-12T13:47:02.232Z,86.71
2023-01-12T13:49:32.398Z,86.55
2023-01-12T13:52:04.168Z,87.08
2023-01-12T13:54:33.406Z,86.97
2023-01-12T13:57:03.173Z,86.49
2023-01-12T13:59:30.981Z,87.09
2023-01-12T14:01:58.932Z,85.68
2023-01-12T14:04:42.402Z,87.18
2023-01-12T14:07:22.773Z,88.42
2023-01-12T14:10:05.398Z,88.58
2023-01-12T14:13:04.668Z,87.98
2023-01-12T14:15:54.546Z,87.52
2023-01-12T14:18:24.814Z,89.49
2023-01-12T14:20:55.521Z,89.04
2023-01-12T14:23:29.839Z,89.19
2023-01-12T14:26:05.907Z,90.29
2023-01-12T14:28:33.798Z,89.00
2023-01-12T14:31:01.985Z,89.70
2023-01-12T14:33:31.492Z,90.45
2023-01-12T14:36:04.711Z,90.15
2023-01-12T14:38:35.043Z,89.97
2023-01-12T14:41:05.041Z,90.54
2023-01-12T14:43:51.777Z,91.72
2023-01-12T14:46:26.440Z,91.69
2023-01-12T14:48:59.629Z,91.38
2023-01-12T14:51:30.457Z,90.79
2023-01-12T14:54:02.387Z,91.08
2023-01-12T14:56:38.524Z,91.32
2023-01-12T14:59:08.500Z,91.63
2023-01-12T15:01:38.575Z,91.34
2023-01-12T15:04:07.940Z,90.91
2023-01-12T15:06:40.188Z,90.35
2023-01-12T15:09:25.639Z,90.51
2023-01-12T15:11:53.129Z,90.99
2023-01-12T15:14:25.814Z,91.19
2023-01-12T15:17:11.931Z,90.82
2023-01-12T15:19:57.394Z,90.86
2023-01-12T15:22:45.139Z,91.30
2023-01-12T15:25:32.114Z,91.86
2023-01-12T15:27:59.483Z,91.36
2023-01-12T15:30:27.351Z,91.67
2023-01-12T15:32:55.471Z,92.23
2023-01-12T15:35:25.013Z,91.96
2023-01-12T15:37:54.523Z,92.30
2023-01-12T15:40:24.477Z,91.19
2023-01-12T15:42:53.425Z,90.47
2023-01-12T15:45:32.717Z,91.03
2023-01-12T15:48:00.112Z,90.59
2023-01-12T15:50:29.199Z,90.32
2023-01-12T15:52:58.656Z,90.53
2023-01-12T15:55:27.656Z,90.95
2023-01-12T15:57:55.019Z,90.62
2023-01-12T16:00:25.081Z,90.76
2023-01-12T16:02:56.781Z,90.29
2023-01-12T16:05:26.279Z,89.55
2023-01-12T16:07:53.934Z,86.04
2023-01-12T16:10:21.826Z,86.20
2023-01-12T16:12:50.654Z,87.20
2023-01-12T16:15:20.098Z,87.51
2023-01-12T16:17:48.423Z,86.24
2023-01-12T16:20:17.448Z,87.39
2023-01-12T16:22:46.532Z,88.65
2023-01-12T16:25:14.506Z,88.58
2023-01-12T16:27:42.139Z,88.69
2023-01-12T16:30:15.191Z,89.73
2023-01-12T16:32:46.265Z,86.27
2023-01-12T16:35:15.240Z,87.00
2023-01-12T16:37:42.719Z,87.67
2023-01-12T16:40:12.347Z,88.31
2023-01-12T16:42:39.688Z,87.09
2023-01-12T16:45:07.991Z,85.66
2023-01-12T16:47:36.668Z,85.87
2023-01-12T16:50:04.603Z,86.48
2023-01-12T16:52:32.363Z,85.98
2023-01-12T16:54:59.778Z,85.49
2023-01-12T16:57:27.244Z,85.64
2023-01-12T16:59:54.596Z,84.63
2023-01-12T17:02:22.291Z,84.36
2023-01-12T17:04:52.334Z,83.36
2023-01-12T17:07:20.077Z,83.86
2023-01-12T17:09:47.795Z,82.03
2023-01-12T17:12:15.251Z,82.56
2023-01-12T17:14:42.753Z,83.49
2023-01-12T17:17:11.992Z,84.26
2023-01-12T17:19:42.884Z,81.94
2023-01-12T17:22:12.801Z,82.00
2023-01-12T17:24:41.667Z,82.19
2023-01-12T17:27:10.461Z,82.12
2023-01-12T17:29:38.401Z,80.84
2023-01-12T17:32:07.503Z,81.60
2023-01-12T17:34:36.881Z,81.70
2023-01-12T17:37:08.151Z,82.24
2023-01-12T17:39:39.681Z,81.94
2023-01-12T17:42:25.180Z,82.71
2023-01-12T17:44:52.558Z,82.23
2023-01-12T17:47:20.036Z,83.02
2023-01-12T17:49:48.547Z,81.59
2023-01-12T17:52:16.397Z,81.94
2023-01-12T17:54:45.177Z,81.07
2023-01-12T17:57:13.028Z,81.70
2023-01-12T17:59:40.805Z,80.33
2023-01-12T18:02:08.321Z,78.94
2023-01-12T18:04:35.731Z,77.38
2023-01-12T18:07:03.123Z,77.09
2023-01-12T18:09:31.225Z,77.93
2023-01-12T18:12:02.515Z,77.03
2023-01-12T18:14:30.024Z,76.54
2023-01-12T18:16:57.804Z,76.95
2023-01-12T18:19:25.224Z,74.99
2023-01-12T18:21:52.731Z,76.71
2023-01-12T18:24:20.140Z,75.87
2023-01-12T18:26:48.024Z,75.33
2023-01-12T18:29:16.712Z,75.71
2023-01-12T18:31:47.197Z,75.32
2023-01-12T18:34:16.359Z,76.65
2023-01-12T18:36:43.835Z,76.23
2023-01-12T18:39:14.194Z,76.08
2023-01-12T18:42:04.600Z,76.03
2023-01-12T18:44:34.159Z,78.05
2023-01-12T18:47:20.417Z,77.09
2023-01-12T18:49:48.304Z,77.12
2023-01-12T18:52:34.498Z,77.20
2023-01-12T18:55:02.906Z,76.93
2023-01-12T18:57:32.067Z,76.95
2023-01-12T19:00:11.917Z,77.36
2023-01-12T19:02:39.995Z,77.72
2023-01-12T19:05:26.997Z,77.02
2023-01-12T19:08:11.200Z,77.76
2023-01-12T19:10:38.657Z,78.60
2023-01-12T19:13:23.388Z,78.93
2023-01-12T19:16:09.988Z,78.56
2023-01-12T19:18:38.334Z,77.67
2023-01-12T19:21:22.758Z,77.86
2023-01-12T19:24:22.233Z,77.62
2023-01-12T19:27:07.272Z,76.83
2023-01-12T19:29:35.403Z,76.88
2023-01-12T19:32:04.298Z,76.10
2023-01-12T19:34:31.684Z,76.45
2023-01-12T19:36:59.123Z,76.43
2023-01-12T19:39:46.349Z,75.91
2023-01-12T19:42:31.998Z,75.74
2023-01-12T19:44:59.374Z,75.13
2023-01-12T19:47:28.293Z,74.86
2023-01-12T19:49:55.717Z,74.99
2023-01-12T19:52:23.098Z,75.50
2023-01-12T19:54:51.035Z,75.04
2023-01-12T19:57:19.657Z,75.72
2023-01-12T19:59:48.245Z,75.81
2023-01-12T20:02:15.864Z,74.94
2023-01-12T20:04:44.625Z,75.32
2023-01-12T20:07:12.017Z,74.36
2023-01-12T20:09:39.520Z,74.07
2023-01-12T20:12:07.363Z,74.62
2023-01-12T20:14:34.809Z,74.43
2023-01-12T20:17:02.186Z,74.25
2023-01-12T20:19:29.714Z,73.70
2023-01-12T20:21:58.457Z,75.27
2023-01-12T20:24:26.130Z,76.06
2023-01-12T20:26:53.606Z,76.21
2023-01-12T20:29:23.427Z,76.83
2023-01-12T20:31:52.327Z,76.54
2023-01-12T20:34:20.932Z,75.51
2023-01-12T20:36:49.071Z,75.75
2023-01-12T20:39:17.940Z,75.15
2023-01-12T20:41:45.369Z,73.94
2023-01-12T20:44:16.938Z,73.05
2023-01-12T20:46:44.551Z,73.33
2023-01-12T20:49:12.237Z,73.62
2023-01-12T20:51:39.726Z,73.23
2023-01-12T20:54:07.940Z,72.55
2023-01-12T20:56:36.753Z,72.28
2023-01-12T20:59:04.204Z,72.48
2023-01-12T21:01:32.377Z,72.56
2023-01-12T21:03:59.808Z,72.05
2023-01-12T21:06:27.355Z,71.70
2023-01-12T21:08:54.789Z,71.28
2023-01-12T21:11:22.372Z,72.22
2023-01-12T21:13:51.064Z,71.70
2023-01-12T21:16:20.270Z,71.53
2023-01-12T21:18:48.001Z,72.24
2023-01-12T21:21:15.693Z,72.08
2023-01-12T21:23:43.175Z,72.43
2023-01-12T21:26:13.506Z,71.42
2023-01-12T21:28:41.492Z,71.37
2023-01-12T21:31:11.881Z,71.90
2023-01-12T21:33:39.476Z,71.48
2023-01-12T21:36:07.898Z,71.33
2023-01-12T21:38:35.323Z,70.53
2023-01-12T21:41:05.568Z,70.57
2023-01-12T21:43:33.214Z,70.77
2023-01-12T21:46:06.048Z,70.67
2023-01-12T21:48:34.996Z,70.98
2023-01-12T21:51:03.261Z,70.69
2023-01-12T21:53:30.670Z,70.30
2023-01-12T21:56:00.651Z,70.27
2023-01-12T21:58:29.256Z,70.74
2023-01-12T22:00:57.121Z,69.99
2023-01-12T22:03:25.397Z,70.27
2023-01-12T22:05:54.932Z,69.41
2023-01-12T22:08:22.736Z,70.29
2023-01-12T22:10:50.121Z,69.55
2023-01-12T22:13:18.510Z,69.18
2023-01-12T22:15:48.330Z,69.46
2023-01-12T22:18:15.679Z,69.77
2023-01-12T22:20:43.706Z,69.64
2023-01-12T22:23:13.447Z,68.88
2023-01-12T22:25:40.896Z,69.42
2023-01-12T22:28:08.279Z,68.82
2023-01-12T22:30:35.690Z,69.10
2023-01-12T22:33:03.075Z,68.16
2023-01-12T22:35:30.461Z,68.61
2023-01-12T22:37:57.904Z,68.12
2023-01-12T22:40:26.643Z,68.46
2023-01-12T22:43:11.659Z,68.42
2023-01-12T22:45:40.330Z,68.45
2023-01-12T22:48:07.947Z,68.27
2023-01-12T22:50:35.301Z,68.78
2023-01-12T22:53:02.705Z,69.07
2023-01-12T22:55:31.399Z,69.06
2023-01-12T22:57:58.845Z,68.84
2023-01-12T23:00:26.364Z,69.26
2023-01-12T23:03:03.083Z,68.99
2023-01-12T23:05:33.510Z,68.83
2023-01-12T23:08:01.276Z,68.78
2023-01-12T23:10:29.713Z,68.82
2023-01-12T23:13:17.199Z,68.69
2023-01-12T23:15:47.521Z,69.75
2023-01-12T23:18:17.253Z,69.10
2023-01-12T23:20:45.999Z,69.31
2023-01-12T23:23:14.461Z,69.63
2023-01-12T23:25:44.601Z,68.91
2023-01-12T23:28:15.023Z,69.67
2023-01-12T23:30:43.078Z,69.18
2023-01-12T23:33:10.831Z,69.11
2023-01-12T23:35:40.064Z,69.10
2023-01-12T23:38:08.447Z,69.90
2023-01-12T23:40:35.978Z,69.67
2023-01-12T23:43:03.494Z,69.72
2023-01-12T23:45:33.910Z,69.37
2023-01-12T23:48:01.410Z,69.46
2023-01-12T23:50:28.957Z,69.64
2023-01-12T23:52:56.700Z,69.49
2023-01-12T23:55:26.070Z,69.26
2023-01-12T23:57:53.791Z,69.47
